»·PEaware :: AAL614 KMSP-KDFW

AAL614 :: KMSP-KDFW

FLIGHT INFORMATION

Flight Status: Arrived
Operator:
American Airlines
More flights by this operator :: More flights under this callsign
Pilot: John H. (7647)
Aircraft: BOEING 737-800
(B738)
More flights by this aircraft type
Origin: KMSP Minneapolis-St Paul Intl
United States
Destination: KDFW Dallas-Ft Worth Intl
United States
More flights between these airports :: More routes between these airports
Route: ORSKY1 OVR J21 IBAKE JOVEM4
File this flight plan on PilotEdge
Remarks: PBN / A1B1C1D1S1S2 DOF / 180919 REG / N806SB EET / KZKC0053 KZFW0130 OPR / AAL PER / C RMK / TCAS SIMBRIEF
Altitude:
(Current/Filed)
34,000ft
Speed:
(Current/Filed)
463kts
Departed: 22-Sep-18 06:10 AM
Arrived: 22-Sep-18 08:12 AM
Distance/Time
Traveled:
742nm/2:01
Distance/Time
To Go:
Arrived

Flight Plot

Page will automatically refresh every two minutes.

Flight plan parsing failed; only flown route is shown


Map Options




Map Legend


Flown Route
Filed Route
Departure Airport
Arrival Airport
Navaid (VOR, NDB)
Fix

Horizontal Profiles

Position Reports

Time Latitude Longitude Heading Altitude Ground
Speed
22-Sep-18 05:56 44.886396 -93.212960 212 849ft 0kts
22-Sep-18 05:57 44.886396 -93.212960 212 849ft 0kts
22-Sep-18 05:58 44.886396 -93.212960 212 849ft 0kts
22-Sep-18 05:59 44.886396 -93.212960 212 849ft 0kts
22-Sep-18 06:00 44.886396 -93.212960 212 849ft 0kts
22-Sep-18 06:01 44.886396 -93.212960 212 849ft 0kts
22-Sep-18 06:02 44.886396 -93.212960 212 849ft 0kts
22-Sep-18 06:03 44.886594 -93.212759 208 849ft 2kts
22-Sep-18 06:04 44.887001 -93.212187 261 849ft 2kts
22-Sep-18 06:05 44.886928 -93.211744 300 849ft 0kts
22-Sep-18 06:06 44.886928 -93.211745 300 848ft 0kts
22-Sep-18 06:07 44.887540 -93.213605 289 848ft 11kts
22-Sep-18 06:08 44.885029 -93.218172 224 848ft 20kts
22-Sep-18 06:09 44.879940 -93.224962 225 848ft 29kts
22-Sep-18 06:10 44.875039 -93.231878 224 848ft 10kts
22-Sep-18 06:11 44.876034 -93.233028 43 848ft 14kts
22-Sep-18 06:12 44.896237 -93.204528 49 1331ft 155kts
22-Sep-18 06:13 44.924196 -93.156085 45 2464ft 161kts
22-Sep-18 06:14 44.955344 -93.164010 259 2695ft 161kts
22-Sep-18 06:15 44.920042 -93.153095 137 2762ft 226kts
22-Sep-18 06:16 44.862096 -93.179520 218 5024ft 261kts
22-Sep-18 06:17 44.808350 -93.241781 218 7645ft 271kts
22-Sep-18 06:18 44.753006 -93.305845 219 10180ft 277kts
22-Sep-18 06:19 44.688890 -93.379858 221 11776ft 320kts
22-Sep-18 06:20 44.618484 -93.461022 221 14063ft 332kts
22-Sep-18 06:21 44.539919 -93.529772 212 16244ft 343kts
22-Sep-18 06:22 44.457518 -93.596132 212 18273ft 351kts
22-Sep-18 06:23 44.373521 -93.663787 211 20023ft 363kts
22-Sep-18 06:24 44.285352 -93.734685 212 21604ft 375kts
22-Sep-18 06:25 44.195273 -93.806883 212 23205ft 382kts
22-Sep-18 06:26 44.104183 -93.879595 212 25181ft 376kts
22-Sep-18 06:27 44.011473 -93.953436 212 26228ft 392kts
22-Sep-18 06:28 43.916706 -94.028632 212 27469ft 401kts
22-Sep-18 06:29 43.822487 -94.103127 212 28583ft 408kts
22-Sep-18 06:30 43.724622 -94.180252 212 29695ft 414kts
22-Sep-18 06:31 43.627119 -94.256748 212 31050ft 410kts
22-Sep-18 06:32 43.529543 -94.333004 213 32281ft 406kts
22-Sep-18 06:33 43.436435 -94.405512 213 33367ft 402kts
22-Sep-18 06:34 43.340743 -94.479760 213 34327ft 401kts
22-Sep-18 06:35 43.238462 -94.550324 206 34323ft 429kts
22-Sep-18 06:36 43.127151 -94.615740 207 34069ft 441kts
22-Sep-18 06:37 43.022757 -94.677228 206 34318ft 444kts
22-Sep-18 06:38 42.910516 -94.743193 206 33809ft 445kts
22-Sep-18 06:39 42.820506 -94.795880 206 33779ft 446kts
22-Sep-18 06:40 42.689188 -94.872541 206 34316ft 445kts
22-Sep-18 06:41 42.595661 -94.926960 206 34320ft 443kts
22-Sep-18 06:42 42.464888 -95.002782 206 34318ft 443kts
22-Sep-18 06:43 42.371667 -95.056618 206 34317ft 443kts
22-Sep-18 06:44 42.240409 -95.132121 206 34318ft 443kts
22-Sep-18 06:45 42.147083 -95.185625 206 34342ft 443kts
22-Sep-18 06:46 42.036079 -95.248988 206 34346ft 443kts
22-Sep-18 06:47 41.924572 -95.312408 206 34343ft 443kts
22-Sep-18 06:48 41.814960 -95.374550 206 34344ft 443kts
22-Sep-18 06:49 41.703743 -95.437383 206 34342ft 443kts
22-Sep-18 06:50 41.592652 -95.499855 206 34331ft 424kts
22-Sep-18 06:51 41.484750 -95.560385 206 34313ft 429kts
22-Sep-18 06:52 41.375769 -95.621310 206 34314ft 429kts
22-Sep-18 06:53 41.267548 -95.681530 205 34319ft 430kts
22-Sep-18 06:54 41.158767 -95.741817 205 34319ft 429kts
22-Sep-18 06:55 41.049301 -95.803883 206 34318ft 429kts
22-Sep-18 06:56 40.940435 -95.865551 206 34315ft 429kts
22-Sep-18 06:57 40.834874 -95.925140 206 34319ft 429kts
22-Sep-18 06:58 40.726843 -95.985891 206 34319ft 429kts
22-Sep-18 06:59 40.618939 -96.046403 205 34320ft 429kts
22-Sep-18 07:00 40.509478 -96.107551 205 34317ft 429kts
22-Sep-18 07:01 40.400378 -96.168340 205 34317ft 429kts
22-Sep-18 07:02 40.291109 -96.228983 205 34316ft 429kts
22-Sep-18 07:03 40.181603 -96.289542 205 34316ft 429kts
22-Sep-18 07:04 40.076542 -96.347421 205 34315ft 429kts
22-Sep-18 07:05 39.968212 -96.407008 204 34305ft 423kts
22-Sep-18 07:06 39.864253 -96.463883 204 34325ft 427kts
22-Sep-18 07:07 39.756311 -96.522776 204 34320ft 424kts
22-Sep-18 07:08 39.647883 -96.581721 204 34318ft 424kts
22-Sep-18 07:09 39.539802 -96.640305 204 34318ft 424kts
22-Sep-18 07:10 39.432612 -96.698119 203 34321ft 424kts
22-Sep-18 07:11 39.325371 -96.755749 203 34318ft 424kts
22-Sep-18 07:12 39.217303 -96.813668 203 34317ft 424kts
22-Sep-18 07:13 39.109203 -96.871403 203 34319ft 424kts
22-Sep-18 07:14 39.001085 -96.929009 203 34321ft 426kts
22-Sep-18 07:15 38.894145 -96.986131 203 34316ft 425kts
22-Sep-18 07:16 38.787157 -97.043131 203 34320ft 424kts
22-Sep-18 07:17 38.679275 -97.100383 203 34319ft 424kts
22-Sep-18 07:18 38.571295 -97.157511 203 34320ft 425kts
22-Sep-18 07:19 38.462675 -97.214779 203 34313ft 425kts
22-Sep-18 07:20 38.354241 -97.270965 203 34290ft 425kts
22-Sep-18 07:21 38.248455 -97.325202 203 34289ft 425kts
22-Sep-18 07:22 38.140054 -97.380643 203 34285ft 423kts
22-Sep-18 07:23 38.032399 -97.436264 203 34286ft 425kts
22-Sep-18 07:24 37.924494 -97.491914 203 34287ft 425kts
22-Sep-18 07:25 37.820063 -97.545561 203 34292ft 425kts
22-Sep-18 07:26 37.706919 -97.585555 184 34276ft 431kts
22-Sep-18 07:27 37.588062 -97.586682 183 34262ft 431kts
22-Sep-18 07:28 37.469025 -97.587631 183 34262ft 431kts
22-Sep-18 07:29 37.355371 -97.588703 183 34261ft 431kts
22-Sep-18 07:30 37.237621 -97.589860 183 34257ft 429kts
22-Sep-18 07:31 37.119453 -97.591089 183 34262ft 432kts
22-Sep-18 07:32 37.000699 -97.592319 183 34260ft 431kts
22-Sep-18 07:33 36.887668 -97.593500 183 34235ft 432kts
22-Sep-18 07:34 36.774418 -97.594678 183 34237ft 432kts
22-Sep-18 07:35 36.657407 -97.595910 183 34238ft 436kts
22-Sep-18 07:36 36.538629 -97.597158 183 34235ft 433kts
22-Sep-18 07:37 36.419324 -97.598398 183 34235ft 432kts
22-Sep-18 07:38 36.300233 -97.599621 184 34232ft 434kts
22-Sep-18 07:39 36.180070 -97.600887 184 34232ft 434kts
22-Sep-18 07:40 36.060445 -97.602140 184 34232ft 434kts
22-Sep-18 07:41 35.940048 -97.603406 184 34230ft 434kts
22-Sep-18 07:42 35.822808 -97.604629 184 34235ft 434kts
22-Sep-18 07:43 35.702725 -97.605875 184 34181ft 434kts
22-Sep-18 07:44 35.583081 -97.607110 184 34180ft 434kts
22-Sep-18 07:45 35.462625 -97.608355 184 34179ft 434kts
22-Sep-18 07:46 35.342566 -97.605169 172 34192ft 439kts
22-Sep-18 07:47 35.224951 -97.568237 169 34179ft 442kts
22-Sep-18 07:48 35.106579 -97.530451 169 34151ft 441kts
22-Sep-18 07:49 34.987768 -97.505159 186 34160ft 433kts
22-Sep-18 07:50 34.873967 -97.515009 188 34155ft 432kts
22-Sep-18 07:51 34.757702 -97.525307 188 34126ft 432kts
22-Sep-18 07:52 34.639396 -97.535596 188 34125ft 431kts
22-Sep-18 07:53 34.520521 -97.545833 188 34127ft 431kts
22-Sep-18 07:54 34.403766 -97.555805 188 34117ft 422kts
22-Sep-18 07:55 34.287938 -97.565668 188 34071ft 421kts
22-Sep-18 07:56 34.172177 -97.575504 188 33200ft 424kts
22-Sep-18 07:57 34.057490 -97.585240 187 29988ft 419kts
22-Sep-18 07:58 33.941965 -97.595056 187 27696ft 424kts
22-Sep-18 07:59 33.840265 -97.603557 187 26159ft 396kts
22-Sep-18 08:00 33.734049 -97.612516 187 24533ft 393kts
22-Sep-18 08:01 33.627024 -97.621501 186 22930ft 383kts
22-Sep-18 08:02 33.523385 -97.630096 186 20827ft 369kts
22-Sep-18 08:03 33.425075 -97.638099 185 18872ft 338kts
22-Sep-18 08:04 33.340434 -97.592046 140 16528ft 352kts
22-Sep-18 08:05 33.274446 -97.514180 139 14930ft 326kts
22-Sep-18 08:06 33.211207 -97.439790 138 13295ft 318kts
22-Sep-18 08:07 33.149149 -97.367047 138 11699ft 311kts
22-Sep-18 08:08 33.092948 -97.292358 127 9364ft 315kts
22-Sep-18 08:09 33.034854 -97.211986 136 5662ft 336kts
22-Sep-18 08:10 32.964890 -97.139531 139 2240ft 336kts
22-Sep-18 08:11 32.902821 -97.109043 217 978ft 260kts
22-Sep-18 08:12 32.897965 -97.148531 43 1323ft 183kts
22-Sep-18 08:13 32.892002 -97.096616 107 562ft 95kts
22-Sep-18 08:14 32.890863 -97.091987 101 580ft 0kts

Navigation Log

Ident Type
Flight plan parsing failed, navigation log unavailable